Time;durP1;ratioP1;P1;durP2;ratioP2;P2;SDS_P1;SDS_P2;PMS_P1;PMS_P2;Temp;Humidity;BMP_temperature;BMP_pressure;BME280_temperature;BME280_humidity;BME280_pressure;Samples;Min_cycle;Max_cycle;Signal;HPM_P1;HPM_P2
2022/01/21 00:00:01;;;;;;;7.07;1.50;;;3.10;99.90;;;2.78;88.34;102598.19;5186114;28;20048;-69
2022/01/21 00:02:33;;;;;;;4.97;1.48;;;3.10;99.90;;;2.76;88.07;102604.88;5186474;28;20046;-69
2022/01/21 00:05:06;;;;;;;6.55;1.35;;;3.10;99.90;;;2.76;88.12;102602.31;5185733;28;20495;-68
2022/01/21 00:07:38;;;;;;;7.43;1.65;;;3.10;99.90;;;2.76;88.66;102606.56;5186103;28;20050;-70
2022/01/21 00:10:12;;;;;;;9.57;1.92;;;3.00;99.90;;;2.75;88.56;102603.06;5186314;28;20494;-69
2022/01/21 00:12:46;;;;;;;5.32;1.80;;;3.00;99.90;;;2.75;89.16;102597.94;5185998;28;20064;-69
2022/01/21 00:15:18;;;;;;;9.18;1.98;;;3.10;99.90;;;2.79;88.98;102593.94;5185687;28;20137;-68
2022/01/21 00:17:50;;;;;;;8.95;2.08;;;3.10;99.90;;;2.81;89.25;102593.34;5186338;28;20325;-69
2022/01/21 00:47:44;;;;;;;7.53;1.98;;;3.10;99.90;;;2.76;88.97;102609.13;5183590;28;20100;-69
2022/01/21 00:50:17;;;;;;;5.15;1.80;;;3.10;99.90;;;2.72;89.28;102608.81;5185120;28;20065;-70
2022/01/21 00:52:49;;;;;;;9.30;1.70;;;3.00;99.90;;;2.66;89.16;102627.94;5185552;28;20415;-68
2022/01/21 00:55:21;;;;;;;6.72;1.83;;;3.00;99.90;;;2.63;89.35;102638.88;5184670;28;20052;-69
2022/01/21 00:57:53;;;;;;;7.13;1.92;;;3.00;99.90;;;2.64;89.46;102639.78;5185153;28;20046;-69
2022/01/21 01:00:25;;;;;;;8.50;2.05;;;3.00;99.90;;;2.63;89.49;102628.56;5184999;28;20056;-69
2022/01/21 01:02:58;;;;;;;5.50;1.80;;;3.00;99.90;;;2.63;89.72;102648.25;5184889;28;20050;-68
2022/01/21 01:05:31;;;;;;;10.60;2.03;;;3.00;99.90;;;2.61;89.65;102649.78;5184788;28;20137;-69
2022/01/21 01:08:03;;;;;;;7.03;1.70;;;3.00;99.90;;;2.59;89.56;102656.44;5185238;28;20060;-68
2022/01/21 01:10:44;;;;;;;7.75;2.00;;;2.90;99.90;;;2.59;89.38;102656.44;5185152;28;20081;-69
2022/01/21 01:21:49;;;;;;;11.60;1.92;;;2.90;99.90;;;2.63;89.72;102658.56;5184698;28;20107;-69
2022/01/21 01:30:03;;;;;;;8.57;1.75;;;2.90;99.90;;;2.64;89.85;102634.63;5184585;28;20076;-68
2022/01/21 01:32:35;;;;;;;6.53;1.85;;;2.90;99.90;;;2.66;89.92;102643.38;5184714;28;20514;-69
2022/01/21 01:35:11;;;;;;;5.57;1.10;;;2.90;99.90;;;2.63;90.11;102637.97;5184266;28;20510;-69
2022/01/21 01:40:36;;;;;;;7.05;1.77;;;2.90;99.90;;;2.60;89.86;102647.94;5183446;28;20064;-69
2022/01/21 01:51:47;;;;;;;9.50;2.13;;;2.80;99.90;;;2.56;90.07;102651.00;5184537;28;20078;-70
2022/01/21 01:54:20;;;;;;;6.10;1.85;;;2.80;99.90;;;2.53;90.47;102648.13;5184298;28;20529;-68
2022/01/21 01:56:56;;;;;;;5.22;2.25;;;2.80;99.90;;;2.54;90.18;102634.47;5184311;28;20137;-69
2022/01/21 01:59:29;;;;;;;5.88;2.10;;;2.80;99.90;;;2.52;90.44;102630.88;5184549;28;20060;-69
2022/01/21 02:02:09;;;;;;;6.72;1.83;;;2.80;99.90;;;2.49;90.64;102633.16;5184430;28;20380;-69
2022/01/21 02:04:43;;;;;;;8.73;2.03;;;2.80;99.90;;;2.52;90.54;102641.16;5184118;28;20050;-69
2022/01/21 02:07:16;;;;;;;12.52;1.98;;;2.80;99.90;;;2.52;90.44;102636.00;5186801;28;20050;-69
2022/01/21 02:09:48;;;;;;;6.25;1.60;;;2.80;99.90;;;2.54;90.97;102631.91;5188511;28;20054;-69
2022/01/21 02:12:20;;;;;;;8.02;2.22;;;2.80;99.90;;;2.56;90.65;102631.31;5188141;28;20042;-68
2022/01/21 02:14:54;;;;;;;5.65;1.67;;;2.80;99.90;;;2.59;90.64;102638.41;5188027;28;20049;-68
2022/01/21 02:23:07;;;;;;;6.05;2.03;;;2.90;99.90;;;2.58;90.82;102644.31;5188072;28;20046;-70
2022/01/21 02:25:39;;;;;;;10.55;2.33;;;2.90;99.90;;;2.60;90.81;102646.28;5187562;28;20514;-69
2022/01/21 02:28:15;;;;;;;7.47;2.08;;;2.90;99.90;;;2.59;91.24;102636.75;5187753;28;20138;-69
2022/01/21 02:30:53;;;;;;;8.30;2.20;;;2.90;99.90;;;2.58;90.64;102634.03;5188008;28;20053;-69
2022/01/21 02:33:27;;;;;;;10.38;1.67;;;2.90;99.90;;;2.58;91.16;102639.19;5188038;28;20108;-68
2022/01/21 02:35:59;;;;;;;11.60;2.10;;;2.90;99.90;;;2.57;90.76;102634.78;5187335;28;20085;-69
2022/01/21 02:38:32;;;;;;;5.82;1.73;;;2.80;99.90;;;2.58;91.35;102631.47;5187783;28;20649;-68
2022/01/21 02:41:04;;;;;;;7.50;2.03;;;2.90;99.90;;;2.58;91.01;102645.22;5187551;28;20050;-69
2022/01/21 02:43:36;;;;;;;7.53;1.80;;;2.90;99.90;;;2.59;91.20;102634.16;5187781;28;20049;-69
2022/01/21 02:46:09;;;;;;;8.55;2.05;;;2.90;99.90;;;2.61;91.15;102640.41;5187388;28;20046;-70
2022/01/21 02:48:42;;;;;;;8.25;2.53;;;2.90;99.90;;;2.58;91.00;102646.91;5187597;28;20053;-70
2022/01/21 02:51:15;;;;;;;5.95;2.03;;;2.90;99.90;;;2.57;91.02;102657.97;5187519;28;20050;-68
2022/01/21 02:54:06;;;;;;;9.27;2.20;;;2.80;99.90;;;2.53;91.09;102650.69;5187085;28;20054;-68
2022/01/21 02:56:40;;;;;;;5.57;2.15;;;2.80;99.90;;;2.49;91.22;102658.91;5187352;28;20058;-69
2022/01/21 02:59:12;;;;;;;9.18;2.60;;;2.80;99.90;;;2.52;91.29;102654.03;5187644;28;20638;-69
2022/01/21 03:01:44;;;;;;;12.57;2.55;;;2.80;99.90;;;2.53;91.24;102656.75;5187549;28;20050;-69
2022/01/21 03:04:24;;;;;;;9.45;2.05;;;2.80;99.90;;;2.54;91.34;102657.66;5186846;28;20137;-69
2022/01/21 03:06:56;;;;;;;4.25;2.47;;;2.80;99.90;;;2.55;91.55;102659.50;5187719;28;20054;-68
2022/01/21 03:09:30;;;;;;;10.32;2.78;;;2.80;99.90;;;2.53;91.04;102646.44;5187093;28;20046;-68
2022/01/21 03:12:02;;;;;;;9.38;2.13;;;2.80;99.90;;;2.52;91.30;102651.47;5187551;28;20042;-67
2022/01/21 03:14:34;;;;;;;7.90;2.35;;;2.80;99.90;;;2.52;91.23;102654.94;5187141;28;20052;-68
2022/01/21 03:17:06;;;;;;;8.98;2.40;;;2.80;99.90;;;2.56;91.33;102662.22;5186672;28;20414;-70
2022/01/21 03:19:38;;;;;;;5.47;2.03;;;2.80;99.90;;;2.59;91.48;102662.50;5186673;28;20068;-69
2022/01/21 03:22:12;;;;;;;10.98;2.22;;;2.90;99.90;;;2.59;91.44;102661.59;5187118;28;20068;-69
2022/01/21 03:24:45;;;;;;;8.20;2.60;;;2.90;99.90;;;2.61;91.58;102662.66;5186988;28;20053;-68
2022/01/21 03:27:17;;;;;;;7.05;2.30;;;2.90;99.90;;;2.62;91.81;102657.66;5186946;28;20054;-70
2022/01/21 03:29:49;;;;;;;7.38;2.72;;;2.90;99.90;;;2.64;91.71;102660.38;5187100;28;20050;-70
2022/01/21 03:32:23;;;;;;;10.05;2.70;;;2.90;99.90;;;2.67;91.55;102660.66;5186688;28;20156;-69
2022/01/21 03:34:55;;;;;;;11.55;2.55;;;3.00;99.90;;;2.68;91.55;102667.63;5186191;28;20050;-70
2022/01/21 03:37:27;;;;;;;11.38;2.72;;;3.00;99.90;;;2.69;91.24;102661.72;5187025;28;20058;-69
2022/01/21 03:40:01;;;;;;;10.27;2.55;;;3.00;99.90;;;2.69;91.27;102659.16;5186877;28;20384;-67
2022/01/21 03:42:33;;;;;;;10.15;3.05;;;3.00;99.90;;;2.64;91.44;102661.28;5186506;28;20052;-68
2022/01/21 03:45:06;;;;;;;10.75;2.83;;;3.00;99.90;;;2.61;91.56;102665.25;5185995;28;20050;-69
2022/01/21 03:47:38;;;;;;;10.88;2.78;;;3.00;99.90;;;2.60;91.46;102663.41;5186356;28;20064;-69
2022/01/21 03:50:22;;;;;;;12.68;2.72;;;3.00;99.90;;;2.63;91.60;102667.19;5186391;28;20056;-69
2022/01/21 03:52:54;;;;;;;7.75;2.78;;;3.00;99.90;;;2.70;91.61;102668.69;5186936;28;20126;-69
2022/01/21 03:55:28;;;;;;;8.90;2.35;;;3.00;99.90;;;2.75;91.56;102679.44;5185769;28;20045;-69
2022/01/21 03:58:01;;;;;;;10.85;2.35;;;3.00;99.90;;;2.78;91.49;102679.72;5186360;28;20052;-69
2022/01/21 04:00:38;;;;;;;8.77;3.13;;;3.10;99.90;;;2.81;91.63;102680.94;5186422;28;20407;-69
2022/01/21 04:03:10;;;;;;;8.27;2.50;;;3.10;99.90;;;2.85;91.46;102676.97;5186272;28;20134;-68
2022/01/21 04:05:42;;;;;;;8.38;2.65;;;3.10;99.90;;;2.87;91.71;102675.44;5185613;28;20145;-69
2022/01/21 04:08:15;;;;;;;8.27;2.75;;;3.20;99.90;;;2.89;91.35;102668.78;5186040;28;20517;-69
2022/01/21 04:10:49;;;;;;;11.32;2.53;;;3.20;99.90;;;2.88;91.41;102670.44;5186184;28;20072;-70
2022/01/21 04:13:23;;;;;;;6.30;2.00;;;3.20;99.90;;;2.86;91.32;102674.53;5186290;28;20073;-69
2022/01/21 04:15:57;;;;;;;10.60;2.17;;;3.20;99.90;;;2.87;91.42;102670.28;5185555;28;20135;-68
2022/01/21 04:18:30;;;;;;;9.35;2.30;;;3.10;99.90;;;2.88;91.33;102665.31;5185735;28;20046;-68
2022/01/21 04:21:02;;;;;;;6.60;2.45;;;3.20;99.90;;;2.89;91.37;102664.53;5185927;28;20069;-69
2022/01/21 04:23:34;;;;;;;7.63;2.55;;;3.20;99.90;;;2.90;91.27;102661.19;5186072;28;20052;-69
2022/01/21 04:26:08;;;;;;;9.80;2.83;;;3.20;99.90;;;2.89;91.06;102656.81;5185335;28;20152;-69
2022/01/21 04:28:40;;;;;;;9.32;2.80;;;3.20;99.90;;;2.90;91.29;102656.03;5185504;28;20072;-69
2022/01/21 04:31:11;;;;;;;8.90;2.45;;;3.20;99.90;;;2.91;91.00;102660.41;5185704;28;20054;-69
2022/01/21 04:33:44;;;;;;;10.52;2.67;;;3.20;99.90;;;2.90;91.36;102662.84;5185386;28;20407;-69
2022/01/21 04:36:16;;;;;;;10.63;2.45;;;3.20;99.90;;;2.88;91.41;102672.13;5185579;28;20388;-69
2022/01/21 04:38:48;;;;;;;12.00;3.08;;;3.20;99.90;;;2.89;91.47;102669.69;5185604;28;20426;-69
2022/01/21 04:41:40;;;;;;;6.00;2.58;;;3.20;99.90;;;2.92;91.55;102663.91;5185033;28;20050;-70
2022/01/21 04:47:18;;;;;;;9.57;2.47;;;3.20;99.90;;;2.94;91.72;102670.13;5185476;28;20073;-69
2022/01/21 04:49:51;;;;;;;10.10;2.08;;;3.20;99.90;;;2.94;91.50;102671.03;5185333;28;20058;-69
2022/01/21 04:52:24;;;;;;;12.57;2.20;;;3.20;99.90;;;2.95;91.04;102665.13;5185469;28;20522;-69
2022/01/21 04:54:56;;;;;;;10.70;2.35;;;3.20;99.90;;;2.93;91.46;102670.88;5184915;28;20423;-69
2022/01/21 04:57:29;;;;;;;11.43;2.13;;;3.20;99.90;;;2.92;91.08;102679.34;5185242;28;20069;-68
2022/01/21 05:00:01;;;;;;;15.75;2.80;;;3.20;99.90;;;2.90;91.33;102676.66;5185162;28;20049;-69
2022/01/21 05:02:35;;;;;;;7.90;2.78;;;3.20;99.90;;;2.91;91.47;102677.56;5185059;28;20057;-69
2022/01/21 05:05:09;;;;;;;10.63;2.55;;;3.20;99.90;;;2.87;91.50;102676.38;5184470;28;20054;-69
2022/01/21 05:07:41;;;;;;;14.98;2.85;;;3.20;99.90;;;2.86;91.56;102674.53;5185218;28;20057;-69
2022/01/21 05:10:13;;;;;;;12.90;3.38;;;3.20;99.90;;;2.90;91.68;102680.88;5185133;28;20073;-68
2022/01/21 05:12:47;;;;;;;9.40;2.53;;;3.20;99.90;;;2.90;91.33;102680.88;5184912;28;20048;-68
2022/01/21 05:15:25;;;;;;;9.45;3.20;;;3.10;99.90;;;2.89;91.43;102674.84;5184556;28;20089;-69
2022/01/21 05:17:58;;;;;;;10.15;2.83;;;3.20;99.90;;;2.92;91.58;102671.63;5185157;28;20084;-69
2022/01/21 05:20:30;;;;;;;12.20;3.38;;;3.20;99.90;;;2.93;91.84;102676.97;5185027;28;20506;-69
2022/01/21 05:23:02;;;;;;;10.50;3.67;;;3.20;99.90;;;2.95;91.89;102669.38;5184675;28;20049;-70
2022/01/21 05:25:34;;;;;;;12.43;3.25;;;3.20;99.90;;;2.95;91.58;102666.78;5184209;28;20049;-70
2022/01/21 05:28:07;;;;;;;9.50;2.83;;;3.20;99.90;;;2.96;91.90;102677.22;5185020;28;20483;-69
2022/01/21 05:30:39;;;;;;;8.30;2.92;;;3.20;99.90;;;2.97;91.85;102673.88;5184800;28;20414;-69
2022/01/21 05:33:11;;;;;;;14.68;3.58;;;3.20;99.90;;;2.98;91.94;102670.53;5241420;22;20042;-73
2022/01/21 05:35:43;;;;;;;11.52;3.08;;;3.20;99.90;;;2.99;91.69;102680.09;5184776;28;20046;-74
2022/01/21 05:38:15;;;;;;;7.25;2.85;;;3.20;99.90;;;2.99;91.96;102677.50;5184663;28;20046;-73
2022/01/21 05:40:47;;;;;;;7.63;3.00;;;3.20;99.90;;;3.01;91.90;102685.41;5184001;28;20053;-73
2022/01/21 05:43:21;;;;;;;7.90;3.10;;;3.20;99.90;;;3.02;91.68;102696.63;5184795;28;20140;-71
2022/01/21 05:48:42;;;;;;;11.70;2.67;;;3.20;99.90;;;3.02;91.79;102691.47;5184605;28;20052;-73
2022/01/21 05:51:16;;;;;;;9.45;2.80;;;3.20;99.90;;;3.03;91.69;102704.50;5184626;28;20045;-72
2022/01/21 05:53:48;;;;;;;11.35;3.45;;;3.30;99.90;;;3.02;91.82;102702.69;5184417;28;20053;-72
2022/01/21 05:56:24;;;;;;;11.30;3.30;;;3.20;99.90;;;3.02;92.11;102701.78;5184783;28;20053;-71
2022/01/21 05:59:00;;;;;;;12.63;4.45;;;3.30;99.90;;;3.01;91.83;102715.44;5184729;28;20050;-70
2022/01/21 06:01:33;;;;;;;11.77;3.80;;;3.20;99.90;;;3.00;92.05;102717.09;5184523;28;20364;-72
2022/01/21 06:04:05;;;;;;;9.27;3.00;;;3.20;99.90;;;3.01;91.70;102715.44;5184253;28;20048;-71
2022/01/21 06:06:38;;;;;;;10.50;3.15;;;3.30;99.90;;;3.04;91.87;102711.44;5184664;28;20491;-73
2022/01/21 06:09:10;;;;;;;11.02;3.28;;;3.30;99.90;;;3.05;91.79;102707.19;5184677;28;20411;-73
2022/01/21 06:11:42;;;;;;;11.20;2.92;;;3.30;99.90;;;3.04;91.78;102710.53;5184592;28;20514;-69
2022/01/21 06:14:16;;;;;;;8.90;3.22;;;3.30;99.90;;;3.03;91.79;102706.16;5184632;28;20136;-71
2022/01/21 06:16:48;;;;;;;8.75;3.00;;;3.30;99.90;;;3.03;91.82;102719.94;5184483;28;20054;-72
2022/01/21 06:19:20;;;;;;;13.32;3.53;;;3.30;99.90;;;3.04;91.76;102702.81;5184395;28;20056;-72
2022/01/21 06:21:52;;;;;;;8.30;2.95;;;3.30;99.90;;;3.03;91.48;102713.88;5184073;28;20056;-74
2022/01/21 06:24:24;;;;;;;8.88;3.63;;;3.30;99.90;;;3.04;91.67;102710.53;5183970;28;20056;-71
2022/01/21 06:27:00;;;;;;;17.42;4.10;;;3.30;99.90;;;3.01;91.65;102710.28;5184275;28;20060;-72
2022/01/21 06:29:34;;;;;;;13.02;2.83;;;3.30;99.90;;;2.99;91.54;102703.28;5184293;28;20065;-72
2022/01/21 06:32:07;;;;;;;13.30;3.55;;;3.20;99.90;;;2.97;91.52;102704.81;5184440;28;20056;-71
2022/01/21 06:34:39;;;;;;;7.35;2.78;;;3.30;99.90;;;2.97;91.91;102689.34;5183882;28;20057;-75
2022/01/21 06:37:11;;;;;;;14.88;3.15;;;3.30;99.90;;;3.01;92.04;102694.81;5184159;28;20486;-72
2022/01/21 06:39:43;;;;;;;8.40;2.70;;;3.20;99.90;;;3.04;91.85;102705.38;5184205;28;20049;-72
2022/01/21 06:42:16;;;;;;;13.65;3.45;;;3.30;99.90;;;3.06;92.29;102704.75;5184264;28;20071;-72
2022/01/21 06:44:49;;;;;;;14.85;3.10;;;3.30;99.90;;;3.08;92.05;102704.94;5184069;28;20061;-73
2022/01/21 06:47:21;;;;;;;10.50;3.30;;;3.30;99.90;;;3.11;92.13;102720.69;5184238;28;20045;-73
2022/01/21 06:49:54;;;;;;;11.57;3.78;;;3.40;99.90;;;3.11;91.92;102705.22;5184120;28;20050;-72
2022/01/21 06:52:27;;;;;;;10.27;2.92;;;3.30;99.90;;;3.13;91.97;102726.88;5185454;28;20041;-72
2022/01/21 06:54:59;;;;;;;7.68;3.47;;;3.40;99.90;;;3.16;92.21;102734.91;5187753;28;20052;-71
2022/01/21 06:57:34;;;;;;;10.70;4.00;;;3.40;99.90;;;3.15;91.79;102735.69;5187830;28;20471;-71
2022/01/21 07:00:13;;;;;;;10.82;3.42;;;3.40;99.90;;;3.14;91.72;102736.44;5187242;28;20046;-71
2022/01/21 07:02:45;;;;;;;12.98;3.90;;;3.40;99.90;;;3.11;91.90;102733.56;5187625;28;20041;-72
2022/01/21 07:05:18;;;;;;;11.88;3.60;;;3.30;99.90;;;3.10;91.88;102742.97;5187504;28;20045;-71
2022/01/21 07:07:50;;;;;;;10.70;3.40;;;3.30;99.90;;;3.07;92.14;102741.78;5187159;28;20053;-72
2022/01/21 07:10:22;;;;;;;10.40;3.33;;;3.40;99.90;;;3.06;92.10;102745.09;5187720;28;20049;-70
2022/01/21 07:12:54;;;;;;;10.02;3.40;;;3.30;99.90;;;3.05;92.30;102748.44;5187520;28;20478;-71
2022/01/21 07:15:27;;;;;;;11.77;3.05;;;3.30;99.90;;;3.07;92.11;102744.34;5187066;28;20052;-71
2022/01/21 07:18:00;;;;;;;9.35;3.10;;;3.30;99.90;;;3.09;92.53;102742.81;5187441;28;20533;-70
2022/01/21 07:20:32;;;;;;;15.57;3.33;;;3.30;99.90;;;3.09;92.62;102740.25;5187364;28;20050;-70
2022/01/21 07:23:04;;;;;;;10.50;3.70;;;3.30;99.90;;;3.08;92.58;102738.44;5187168;28;20057;-71
2022/01/21 07:25:37;;;;;;;10.55;3.53;;;3.30;99.90;;;3.10;92.44;102744.63;5186915;28;20146;-71
2022/01/21 07:28:09;;;;;;;10.95;3.38;;;3.30;99.90;;;3.11;92.78;102737.03;5187205;28;20402;-70
2022/01/21 07:30:43;;;;;;;10.80;3.15;;;3.30;99.90;;;3.10;92.75;102742.97;5187221;28;20050;-71
2022/01/21 07:33:15;;;;;;;9.65;3.55;;;3.30;99.90;;;3.07;92.55;102736.63;5186790;28;20050;-71
2022/01/21 07:35:47;;;;;;;10.93;3.85;;;3.30;99.90;;;3.09;92.94;102733.41;5186839;28;20054;-72
2022/01/21 07:38:19;;;;;;;7.18;3.45;;;3.40;99.90;;;3.10;92.51;102742.97;5186693;28;20056;-72
2022/01/21 07:40:51;;;;;;;8.57;3.35;;;3.30;99.90;;;3.09;92.49;102735.09;5187076;28;20046;-71
2022/01/21 07:43:23;;;;;;;12.05;3.30;;;3.40;99.90;;;3.09;92.55;102737.66;5186890;28;20056;-71
2022/01/21 07:45:56;;;;;;;9.02;3.25;;;3.30;99.90;;;3.05;92.41;102738.13;5186741;28;20050;-70
2022/01/21 07:48:28;;;;;;;9.43;3.38;;;3.30;99.90;;;3.06;92.25;102740.84;5186448;28;20056;-71
2022/01/21 07:51:00;;;;;;;8.80;2.65;;;3.30;99.90;;;3.09;92.84;102735.09;5186665;28;20483;-71
2022/01/21 07:53:32;;;;;;;11.75;3.20;;;3.30;99.90;;;3.11;92.68;102746.44;5186738;28;20406;-70
2022/01/21 07:56:05;;;;;;;12.82;3.55;;;3.40;99.90;;;3.11;92.79;102756.75;5186554;28;20049;-71
2022/01/21 07:58:37;;;;;;;13.77;3.88;;;3.30;99.90;;;3.14;93.07;102754.50;5186485;28;20049;-70
2022/01/21 08:01:11;;;;;;;15.48;4.25;;;3.40;99.90;;;3.18;93.00;102766.88;5186222;28;20052;-71
2022/01/21 08:03:43;;;;;;;12.10;3.20;;;3.40;99.90;;;3.21;92.64;102781.00;5185726;28;20057;-70
2022/01/21 08:06:15;;;;;;;9.15;3.58;;;3.50;99.90;;;3.22;92.49;102774.16;5186237;28;20100;-71
2022/01/21 08:08:47;;;;;;;13.60;3.90;;;3.40;99.90;;;3.22;92.35;102772.50;5186395;28;20052;-71
2022/01/21 08:11:19;;;;;;;7.68;3.60;;;3.40;99.90;;;3.21;91.98;102783.56;5186316;28;20046;-72
2022/01/21 08:13:51;;;;;;;10.27;3.85;;;3.40;99.90;;;3.21;92.41;102782.66;5186369;28;20050;-71
2022/01/21 08:16:24;;;;;;;15.20;3.63;;;3.50;99.90;;;3.19;92.39;102782.50;5186100;28;20050;-71
2022/01/21 08:18:56;;;;;;;10.40;3.75;;;3.40;99.90;;;3.17;92.37;102785.69;5186282;28;20349;-71
2022/01/21 08:21:28;;;;;;;10.27;3.35;;;3.40;99.90;;;3.18;92.10;102779.78;5185987;28;20101;-71
2022/01/21 08:24:00;;;;;;;25.25;4.43;;;3.40;99.90;;;3.18;92.50;102790.09;5186289;28;20042;-71
2022/01/21 08:26:32;;;;;;;12.90;3.75;;;3.40;99.90;;;3.14;92.60;102790.56;5186049;28;20402;-68
2022/01/21 08:29:06;;;;;;;11.05;4.10;;;3.40;99.90;;;3.19;92.71;102795.38;5185733;28;20046;-70
2022/01/21 08:31:40;;;;;;;16.00;4.22;;;3.40;99.90;;;3.23;92.85;102799.16;5186206;28;20054;-70
2022/01/21 08:34:13;;;;;;;9.50;3.67;;;3.50;99.90;;;3.29;92.55;102792.03;5185346;28;20042;-73
2022/01/21 08:36:46;;;;;;;10.52;3.83;;;3.50;99.90;;;3.35;92.61;102789.13;5185403;28;20104;-71
2022/01/21 08:39:18;;;;;;;13.07;3.72;;;3.60;99.90;;;3.38;92.63;102792.88;5184738;28;20490;-70
2022/01/21 08:41:50;;;;;;;13.23;4.75;;;3.60;99.90;;;3.40;92.49;102785.31;5185151;28;20512;-71
2022/01/21 08:44:22;;;;;;;10.10;3.67;;;3.60;99.90;;;3.43;92.16;102777.88;5185435;28;20073;-70
2022/01/21 08:46:55;;;;;;;8.57;3.92;;;3.70;99.90;;;3.46;92.34;102775.59;5185616;28;20417;-71
2022/01/21 08:49:27;;;;;;;12.98;3.72;;;3.70;99.90;;;3.51;92.08;102777.81;5185371;28;20046;-71
2022/01/21 08:52:00;;;;;;;12.68;3.55;;;3.70;99.90;;;3.50;91.82;102785.41;5185476;28;20495;-70
2022/01/21 08:54:32;;;;;;;13.18;3.92;;;3.70;99.90;;;3.50;91.56;102791.47;5185298;28;20049;-70
2022/01/21 08:57:04;;;;;;;10.02;4.18;;;3.70;99.90;;;3.50;92.08;102782.84;5185433;28;20406;-71
2022/01/21 08:59:36;;;;;;;11.60;4.20;;;3.70;99.90;;;3.49;91.78;102791.34;5185423;28;20057;-71
2022/01/21 09:02:10;;;;;;;9.77;4.20;;;3.80;99.90;;;3.48;92.13;102800.75;5185234;28;20065;-72
2022/01/21 09:04:42;;;;;;;10.40;3.67;;;3.70;99.90;;;3.47;92.28;102804.09;5184753;28;20053;-74
2022/01/21 09:07:14;;;;;;;8.50;3.88;;;3.80;99.90;;;3.50;92.49;102794.06;5185404;28;20405;-72
2022/01/21 09:09:46;;;;;;;12.65;4.13;;;3.80;99.90;;;3.53;92.42;102793.47;5185227;28;20057;-72
2022/01/21 09:12:18;;;;;;;11.18;4.07;;;3.70;99.90;;;3.58;91.82;102791.28;5184864;28;20049;-72
2022/01/21 09:14:50;;;;;;;16.15;3.72;;;3.80;99.90;;;3.55;91.78;102797.09;5184750;28;20046;-72
2022/01/21 09:17:24;;;;;;;7.50;3.33;;;3.80;99.90;;;3.54;92.07;102800.44;5184598;28;20050;-77
2022/01/21 09:19:56;;;;;;;13.02;3.95;;;3.80;99.90;;;3.57;92.37;102795.53;5178443;28;20092;-70
2022/01/21 09:22:28;;;;;;;10.07;3.95;;;3.80;99.90;;;3.61;92.42;102791.59;5169172;28;20054;-71
2022/01/21 09:25:00;;;;;;;11.40;3.35;;;3.90;99.90;;;3.66;92.59;102803.28;5164024;28;20042;-70
2022/01/21 09:27:32;;;;;;;11.50;3.45;;;3.90;99.90;;;3.71;92.34;102813.22;5180590;28;20056;-72
2022/01/21 09:30:06;;;;;;;9.15;3.80;;;3.90;99.90;;;3.75;91.98;102806.69;5184806;28;20056;-71
2022/01/21 09:32:39;;;;;;;10.90;3.45;;;3.90;99.90;;;3.74;92.08;102807.47;5184822;28;20056;-72
2022/01/21 09:35:12;;;;;;;7.15;3.60;;;3.90;99.90;;;3.77;91.65;102805.16;5183803;28;20062;-70
2022/01/21 09:37:44;;;;;;;16.90;3.60;;;4.00;99.90;;;3.74;91.47;102799.72;5184807;28;20050;-71
2022/01/21 09:40:17;;;;;;;13.55;4.03;;;4.00;99.90;;;3.75;91.57;102802.44;5185011;28;20046;-70
2022/01/21 09:42:49;;;;;;;10.82;3.38;;;4.00;99.90;;;3.82;91.53;102803.94;5184614;28;20053;-72
2022/01/21 09:45:22;;;;;;;9.27;3.42;;;4.00;99.90;;;3.83;91.59;102805.75;5183569;28;20050;-71
2022/01/21 09:47:58;;;;;;;9.23;3.65;;;4.00;99.90;;;3.89;91.59;102803.72;5184715;28;20108;-71
2022/01/21 09:50:30;;;;;;;10.98;3.65;;;4.10;99.90;;;3.95;91.63;102805.97;5184413;28;20104;-70
2022/01/21 09:53:03;;;;;;;11.02;4.00;;;4.10;99.90;;;4.01;91.59;102802.31;5184709;28;20543;-70
2022/01/21 09:55:35;;;;;;;10.48;4.20;;;4.20;99.90;;;4.08;91.51;102799.53;5184139;28;20060;-72
2022/01/21 09:58:10;;;;;;;9.80;4.03;;;4.20;99.90;;;4.13;91.38;102796.47;5184157;28;20060;-72
2022/01/21 10:00:42;;;;;;;11.43;4.70;;;4.30;99.90;;;4.20;91.04;102799.75;5184584;28;20511;-73
2022/01/21 10:03:16;;;;;;;12.40;4.22;;;4.30;99.90;;;4.29;91.48;102800.56;5184250;28;20082;-72
2022/01/21 10:05:49;;;;;;;10.02;3.80;;;4.40;99.90;;;4.39;91.27;102791.13;5183345;28;20537;-71
2022/01/21 10:08:23;;;;;;;17.60;4.30;;;4.50;99.90;;;4.43;91.04;102800.94;5184360;28;20048;-72
2022/01/21 10:10:55;;;;;;;15.27;4.32;;;4.50;99.90;;;4.42;90.46;102805.19;5184717;28;20120;-70
2022/01/21 10:13:30;;;;;;;10.60;3.83;;;4.50;99.90;;;4.40;90.18;102804.16;5183936;28;20052;-71
2022/01/21 10:16:04;;;;;;;15.00;4.07;;;4.50;99.90;;;4.37;90.42;102809.06;5183936;28;20054;-71
2022/01/21 10:18:37;;;;;;;12.38;4.15;;;4.50;99.90;;;4.42;90.20;102812.94;5184307;28;20145;-70
2022/01/21 10:21:12;;;;;;;13.32;4.13;;;4.50;99.90;;;4.41;89.94;102811.13;5184008;28;20487;-71
2022/01/21 10:23:44;;;;;;;12.20;4.22;;;4.50;99.90;;;4.44;90.42;102806.25;5184121;28;20046;-69
2022/01/21 10:26:23;;;;;;;13.20;3.90;;;4.60;99.90;;;4.47;90.15;102796.19;5177427;28;20050;-71
2022/01/21 10:28:57;;;;;;;11.98;3.95;;;4.60;99.90;;;4.53;90.05;102799.34;5167497;28;20105;-71
2022/01/21 10:31:30;;;;;;;12.35;3.42;;;4.60;99.90;;;4.59;91.32;102801.56;5175072;28;20050;-67
2022/01/21 10:34:07;;;;;;;9.00;3.72;;;4.70;99.90;;;4.73;91.20;102805.41;5167128;28;20766;-71
2022/01/21 10:36:45;;;;;;;11.45;4.22;;;4.80;99.90;;;4.72;90.07;102803.59;5177048;28;20523;-71
2022/01/21 10:39:28;;;;;;;14.93;3.80;;;4.80;99.90;;;4.69;90.24;102808.47;5188137;28;20103;-71
2022/01/21 10:42:01;;;;;;;10.55;4.10;;;4.80;99.90;;;4.67;90.03;102810.91;5187714;28;20084;-71
2022/01/21 10:44:33;;;;;;;8.60;3.60;;;4.80;99.90;;;4.61;89.60;102820.69;5187147;28;20046;-71
2022/01/21 10:47:10;;;;;;;14.55;3.78;;;4.90;99.90;;;4.61;89.97;102812.94;5187959;28;20050;-71
2022/01/21 10:49:43;;;;;;;9.77;4.15;;;4.80;99.90;;;4.68;89.89;102809.25;5187993;28;20529;-72
2022/01/21 10:52:17;;;;;;;12.88;3.90;;;4.80;99.90;;;4.69;89.67;102814.53;5187251;28;20693;-71
2022/01/21 10:54:51;;;;;;;8.57;3.28;;;4.80;99.90;;;4.75;89.48;102809.03;5187149;28;20050;-70
2022/01/21 10:57:24;;;;;;;8.98;3.47;;;4.90;99.90;;;4.73;89.22;102810.56;5187719;28;20061;-72
2022/01/21 10:59:59;;;;;;;10.43;2.88;;;4.90;99.90;;;4.75;89.67;102809.03;5187082;28;20551;-71
2022/01/21 11:02:36;;;;;;;8.88;3.67;;;4.90;99.90;;;4.81;89.52;102814.75;5186930;28;20050;-72
2022/01/21 11:05:15;;;;;;;7.47;4.10;;;5.00;99.90;;;4.82;89.37;102816.56;5186789;28;20042;-72
2022/01/21 11:07:58;;;;;;;10.10;4.63;;;5.00;99.90;;;4.85;89.39;102806.50;5187273;28;20050;-70
2022/01/21 11:10:46;;;;;;;10.25;4.05;;;5.10;99.90;;;4.92;88.65;102805.38;5187466;28;20054;-71
2022/01/21 11:13:37;;;;;;;16.13;4.28;;;5.10;99.90;;;4.96;88.68;102805.81;5187057;28;20054;-71
2022/01/21 11:16:18;;;;;;;12.73;4.63;;;5.10;99.90;;;5.01;88.20;102790.69;5186888;28;20379;-71
2022/01/21 11:18:58;;;;;;;10.75;4.18;;;5.20;99.90;;;5.01;86.93;102778.66;5187082;28;20050;-71
2022/01/21 11:21:46;;;;;;;9.38;4.20;;;5.20;99.90;;;5.01;87.37;102785.50;5186666;28;20487;-71
2022/01/21 11:24:21;;;;;;;;;;;5.20;99.90;;;5.06;87.67;102777.38;5186904;28;20048;-70
2022/01/21 11:27:12;;;;;;;11.55;3.70;;;5.20;99.90;;;5.15;87.15;102779.88;5187053;28;19921;-72
2022/01/21 11:29:46;;;;;;;7.85;4.15;;;5.20;99.90;;;5.14;87.30;102775.47;5186405;28;20060;-70
2022/01/21 11:35:06;;;;;;;13.52;4.05;;;5.30;99.90;;;5.20;87.02;102764.75;3367989;26;20128;-85
2022/01/21 11:37:41;;;;;;;11.75;4.82;;;5.30;99.90;;;5.27;87.08;102772.28;5197444;28;20061;-85
2022/01/21 11:40:13;;;;;;;13.75;4.13;;;5.40;99.90;;;5.22;86.51;102774.50;5196791;28;20106;-85
2022/01/21 11:42:47;;;;;;;9.73;4.30;;;5.40;99.90;;;5.22;86.60;102773.59;5192807;28;20429;-86
2022/01/21 11:45:32;;;;;;;12.48;4.10;;;5.40;99.90;;;5.20;86.89;102759.59;5176292;28;20140;-85
2022/01/21 11:48:50;;;;;;;11.48;5.05;;;5.40;99.90;;;5.26;86.55;102761.03;5173577;28;20089;-81
2022/01/21 11:53:49;;;;;;;8.65;3.72;;;5.30;99.90;;;5.28;86.58;102759.50;5233666;23;20392;-70
2022/01/21 11:56:39;;;;;;;8.57;3.75;;;5.40;99.90;;;5.33;86.33;102763.38;5187500;28;20128;-72
2022/01/21 11:59:23;;;;;;;8.80;3.88;;;5.40;99.90;;;5.33;86.69;102762.47;5187453;28;20054;-71